Time;durP1;ratioP1;P1;durP2;ratioP2;P2;SDS_P1;SDS_P2;PMS_P1;PMS_P2;Temp;Humidity;BMP_temperature;BMP_pressure;BME280_temperature;BME280_humidity;BME280_pressure;Samples;Min_cycle;Max_cycle;Signal;HPM_P1;HPM_P2
2022/01/06 00:01:05;;;;;;;43.10;31.60;;;;;;;6.55;75.72;96054.67;110143;1250;59698;-67
2022/01/06 00:03:35;;;;;;;31.10;21.80;;;;;;;6.52;75.22;96063.36;110175;1249;71553;-68
2022/01/06 00:06:08;;;;;;;34.10;23.20;;;;;;;6.54;74.75;96066.71;110194;1247;68592;-67
2022/01/06 00:08:39;;;;;;;36.80;25.50;;;;;;;6.57;74.50;96062.98;110253;1247;69213;-64
2022/01/06 00:11:10;;;;;;;42.50;30.00;;;;;;;6.59;74.86;96068.39;110162;1247;59652;-66
2022/01/06 00:14:02;;;;;;;40.00;29.60;;;;;;;6.56;75.05;96076.22;110010;1250;59682;-67
2022/01/06 00:24:20;;;;;;;41.80;28.80;;;;;;;6.57;74.39;96076.46;110195;1247;59668;-71
2022/01/06 00:26:50;;;;;;;40.30;29.90;;;;;;;6.55;75.09;96076.45;110219;1247;59635;-66
2022/01/06 00:29:20;;;;;;;37.30;26.90;;;;;;;6.51;75.09;96077.98;110184;1247;70794;-67
2022/01/06 00:31:49;;;;;;;30.20;21.30;;;;;;;6.51;74.79;96080.09;110235;1247;68617;-67
2022/01/06 00:34:18;;;;;;;35.70;24.80;;;;;;;6.50;74.68;96081.67;110168;1247;70046;-67
2022/01/06 00:36:47;;;;;;;45.20;32.20;;;;;;;6.50;74.79;96079.59;110228;1247;59696;-66
2022/01/06 00:39:16;;;;;;;42.50;30.90;;;;;;;6.48;75.35;96082.39;110215;1247;59695;-66
2022/01/06 00:41:45;;;;;;;41.90;30.70;;;;;;;6.43;76.14;96089.36;110207;1247;71370;-66
2022/01/06 00:44:14;;;;;;;35.60;25.20;;;;;;;6.38;76.30;96095.44;110207;1247;68655;-66
2022/01/06 00:46:45;;;;;;;36.90;26.70;;;;;;;6.36;75.56;96101.64;110208;1247;70013;-66
2022/01/06 00:49:14;;;;;;;37.40;27.50;;;;;;;6.35;75.88;96103.79;110161;1247;59786;-66
2022/01/06 00:51:44;;;;;;;33.10;24.50;;;;;;;6.36;76.24;96105.85;110032;1249;59683;-67
2022/01/06 00:54:13;;;;;;;;;;;;;;;6.37;76.49;96098.96;110167;1250;70750;-70
2022/01/06 00:56:42;;;;;;;32.10;22.70;;;;;;;6.38;76.71;96101.48;110109;1247;67874;-68
2022/01/06 00:59:12;;;;;;;28.60;20.80;;;;;;;6.41;76.30;96100.27;110183;1247;68474;-68
2022/01/06 01:01:41;;;;;;;31.20;22.90;;;;;;;6.43;76.66;96106.35;110209;1247;59711;-67
2022/01/06 01:04:10;;;;;;;26.30;19.40;;;;;;;6.45;76.47;96105.30;109764;1250;59675;-67
2022/01/06 01:06:39;;;;;;;24.10;17.50;;;;;;;6.48;76.16;96109.01;110213;1247;71622;-69
2022/01/06 01:09:08;;;;;;;30.80;22.10;;;;;;;6.51;76.38;96108.45;110163;1247;68816;-73
2022/01/06 01:11:38;;;;;;;46.30;32.50;;;;;;;6.51;76.44;96118.37;110195;1247;68909;-70
2022/01/06 01:14:18;;;;;;;43.30;30.20;;;;;;;6.48;76.77;96125.70;110158;1247;59686;-72
2022/01/06 01:16:54;;;;;;;44.50;32.70;;;;;;;6.41;76.89;96132.94;110156;1248;59699;-70
2022/01/06 01:19:25;;;;;;;46.40;33.10;;;;;;;6.27;77.64;96141.80;110224;1247;71440;-69
2022/01/06 01:21:54;;;;;;;44.20;31.70;;;;;;;6.15;78.13;96145.64;110148;1248;68353;-71
2022/01/06 01:24:25;;;;;;;42.10;30.90;;;;;;;6.09;77.99;96141.58;110048;1249;68945;-71
2022/01/06 01:26:54;;;;;;;35.70;26.50;;;;;;;6.12;77.27;96141.52;110116;1249;59628;-73
2022/01/06 01:29:23;;;;;;;47.50;34.20;;;;;;;6.12;77.76;96138.09;110058;1248;59668;-71
2022/01/06 01:31:55;;;;;;;45.50;32.60;;;;;;;6.09;78.56;96144.66;109951;1250;71509;-71
2022/01/06 01:34:27;;;;;;;43.40;31.80;;;;;;;6.12;78.57;96142.90;110136;1249;68603;-71
2022/01/06 01:36:57;;;;;;;40.90;30.90;;;;;;;6.17;78.35;96140.15;110181;1247;68688;-71
2022/01/06 01:39:27;;;;;;;46.60;34.20;;;;;;;6.21;77.57;96140.04;110166;1249;59666;-71
2022/01/06 01:41:57;;;;;;;34.90;25.40;;;;;;;6.22;78.08;96140.27;110152;1249;59671;-68
2022/01/06 01:44:29;;;;;;;;;;;;;;;6.24;77.54;96136.48;110181;1249;70738;-71
2022/01/06 01:47:01;;;;;;;28.20;18.10;;;;;;;6.26;77.38;96140.66;110097;1250;68598;-72
2022/01/06 01:49:48;;;;;;;43.60;30.20;;;;;;;6.26;76.84;96140.11;110044;1247;68649;-69
2022/01/06 01:52:18;;;;;;;34.20;25.20;;;;;;;6.26;77.78;96141.38;110015;1250;59688;-72
2022/01/06 01:54:47;;;;;;;28.60;20.20;;;;;;;6.24;77.96;96139.78;110160;1248;59653;-71
2022/01/06 01:57:17;;;;;;;31.90;22.20;;;;;;;6.22;77.79;96136.64;109984;1250;70718;-72
2022/01/06 01:59:46;;;;;;;32.20;23.00;;;;;;;6.20;78.08;96138.86;110212;1247;68433;-70
2022/01/06 02:02:16;;;;;;;25.60;18.80;;;;;;;6.21;78.66;96134.52;110143;1248;69228;-70
2022/01/06 02:04:47;;;;;;;25.50;18.50;;;;;;;6.22;78.86;96131.83;110137;1249;59684;-71
2022/01/06 02:07:16;;;;;;;14.20;11.10;;;;;;;6.22;78.02;96131.31;110140;1247;59688;-68
2022/01/06 02:09:45;;;;;;;23.40;15.50;;;;;;;6.22;78.05;96140.08;109956;1250;71598;-69
2022/01/06 02:12:23;;;;;;;21.80;14.50;;;;;;;6.24;78.09;96141.55;110144;1248;68423;-71
2022/01/06 02:14:52;;;;;;;20.40;13.70;;;;;;;6.23;77.88;96139.35;110177;1248;70130;-70
2022/01/06 02:17:21;;;;;;;23.00;17.60;;;;;;;6.22;77.65;96138.41;110142;1247;59682;-70
2022/01/06 02:19:57;;;;;;;19.90;15.50;;;;;;;6.20;79.47;96141.46;110192;1247;59659;-70
2022/01/06 02:22:27;;;;;;;20.50;16.70;;;;;;;6.20;78.91;96139.08;110204;1247;71099;-71
2022/01/06 02:24:56;;;;;;;;;;;;;;;6.19;79.94;96139.67;110254;1246;67526;-72
2022/01/06 02:27:25;;;;;;;21.90;15.50;;;;;;;6.16;79.28;96136.39;110190;1247;69259;-67
2022/01/06 02:29:54;;;;;;;28.10;18.20;;;;;;;6.10;78.94;96140.64;110194;1247;59697;-70
2022/01/06 02:32:23;;;;;;;27.60;19.90;;;;;;;6.03;79.07;96143.39;109959;1250;59711;-69
2022/01/06 02:34:53;;;;;;;21.60;15.90;;;;;;;5.99;79.00;96141.86;110084;1248;70747;-70
2022/01/06 02:37:22;;;;;;;29.20;21.80;;;;;;;5.96;78.48;96139.83;110198;1247;68469;-67
2022/01/06 02:39:51;;;;;;;25.70;17.90;;;;;;;5.95;78.30;96135.69;110202;1247;68748;-67
2022/01/06 02:42:21;;;;;;;34.90;24.10;;;;;;;5.94;78.91;96134.11;110195;1247;59680;-67
2022/01/06 02:44:50;;;;;;;28.40;19.40;;;;;;;5.88;79.04;96128.92;110166;1247;59700;-70
2022/01/06 02:47:19;;;;;;;34.90;23.80;;;;;;;5.80;79.59;96129.35;110160;1247;70883;-66
2022/01/06 02:49:49;;;;;;;29.80;20.40;;;;;;;5.72;80.03;96130.70;110199;1247;68580;-67
2022/01/06 02:52:18;;;;;;;26.30;17.60;;;;;;;5.64;79.98;96141.65;110213;1247;68587;-66
2022/01/06 02:54:49;;;;;;;31.60;22.00;;;;;;;5.56;80.89;96144.30;110202;1247;59614;-66
2022/01/06 02:57:21;;;;;;;34.80;21.90;;;;;;;5.46;82.50;96139.78;110234;1247;59752;-66
2022/01/06 02:59:51;;;;;;;27.90;19.60;;;;;;;5.40;83.98;96132.83;110203;1247;70596;-66
2022/01/06 03:02:21;;;;;;;33.30;24.20;;;;;;;5.38;81.80;96135.76;110238;1249;68683;-70
2022/01/06 03:04:52;;;;;;;27.70;20.70;;;;;;;5.34;81.24;96132.58;110117;1248;68651;-69
2022/01/06 03:07:21;;;;;;;35.70;24.10;;;;;;;5.30;80.65;96128.31;110176;1247;59829;-71
2022/01/06 03:09:56;;;;;;;35.10;23.10;;;;;;;5.32;81.03;96125.30;110240;1247;59688;-71
2022/01/06 03:14:55;;;;;;;34.30;27.30;;;;;;;5.25;81.57;96130.63;110184;1247;68620;-71
2022/01/06 03:17:25;;;;;;;31.40;22.50;;;;;;;5.19;81.94;96119.34;110189;1247;67696;-71
2022/01/06 03:19:54;;;;;;;27.40;20.30;;;;;;;5.14;81.47;96121.59;110197;1247;59699;-72
2022/01/06 03:22:23;;;;;;;31.50;21.90;;;;;;;5.08;81.38;96123.02;110155;1248;59725;-71
2022/01/06 03:24:53;;;;;;;33.10;21.20;;;;;;;5.02;81.30;96128.12;110291;1247;71525;-71
2022/01/06 03:27:23;;;;;;;;;;;;;;;4.96;81.87;96128.89;110118;1250;68740;-68
2022/01/06 03:29:53;;;;;;;31.60;21.50;;;;;;;4.91;82.38;96124.61;110208;1247;68638;-72
2022/01/06 03:32:23;;;;;;;29.80;21.20;;;;;;;4.87;83.23;96130.71;110227;1247;59760;-70
2022/01/06 03:34:53;;;;;;;;;;;;;;;4.83;83.55;96138.05;110216;1247;59712;-72
2022/01/06 03:37:23;;;;;;;31.50;19.80;;;;;;;4.79;83.73;96141.80;110200;1247;71516;-72
2022/01/06 03:39:53;;;;;;;32.50;20.50;;;;;;;4.74;84.30;96142.34;110184;1247;68582;-71
2022/01/06 03:42:23;;;;;;;29.10;21.10;;;;;;;4.71;84.50;96143.73;110144;1248;69237;-72
2022/01/06 03:44:55;;;;;;;31.40;20.70;;;;;;;4.70;85.08;96145.39;110220;1249;59729;-71
2022/01/06 03:47:25;;;;;;;29.00;19.70;;;;;;;4.70;85.46;96147.63;110184;1250;59700;-70
2022/01/06 03:49:54;;;;;;;34.20;22.30;;;;;;;4.69;85.06;96155.27;110053;1248;71532;-67
2022/01/06 03:52:24;;;;;;;19.10;13.20;;;;;;;4.66;84.74;96160.00;110262;1247;67884;-73
2022/01/06 03:54:53;;;;;;;23.50;15.80;;;;;;;4.64;84.08;96161.55;110148;1249;68663;-69
2022/01/06 03:57:23;;;;;;;21.00;14.60;;;;;;;4.59;83.90;96167.36;109889;1248;60059;-71
2022/01/06 03:59:53;;;;;;;19.50;13.80;;;;;;;4.55;83.34;96164.51;110194;1248;59707;-71
2022/01/06 04:02:25;;;;;;;19.10;13.00;;;;;;;4.53;83.27;96165.70;110136;1247;71682;-71
2022/01/06 04:04:56;;;;;;;22.10;14.80;;;;;;;4.50;83.49;96165.38;109937;1250;68559;-72
2022/01/06 04:07:35;;;;;;;40.80;27.90;;;;;;;4.48;83.16;96175.20;109768;1248;69581;-73
2022/01/06 04:10:07;;;;;;;33.20;23.00;;;;;;;4.43;83.38;96178.48;109934;1249;59718;-70
2022/01/06 04:12:38;;;;;;;28.60;18.90;;;;;;;4.38;83.28;96176.73;110108;1247;59755;-70
2022/01/06 04:15:13;;;;;;;21.50;14.60;;;;;;;4.35;83.12;96183.88;109946;1248;71578;-71
2022/01/06 04:17:44;;;;;;;21.20;14.10;;;;;;;4.32;82.96;96186.92;109923;1250;68533;-72
2022/01/06 04:20:15;;;;;;;15.00;11.90;;;;;;;4.30;83.03;96192.08;109687;1250;68923;-71
2022/01/06 04:22:46;;;;;;;17.20;12.60;;;;;;;4.28;83.10;96194.15;110149;1247;59928;-72
2022/01/06 04:25:16;;;;;;;24.90;16.10;;;;;;;4.26;83.10;96193.06;109880;1250;59691;-73
2022/01/06 04:27:46;;;;;;;21.20;15.10;;;;;;;4.27;82.66;96191.11;110122;1247;71529;-72
2022/01/06 04:30:16;;;;;;;24.30;16.20;;;;;;;4.34;82.07;96199.77;110058;1249;68551;-72
2022/01/06 04:32:45;;;;;;;19.70;13.50;;;;;;;4.40;82.51;96210.58;109816;1250;69096;-70
2022/01/06 04:35:14;;;;;;;22.20;14.90;;;;;;;4.44;82.36;96212.01;110076;1247;59672;-68
2022/01/06 04:37:44;;;;;;;17.40;12.30;;;;;;;4.49;82.37;96207.23;110195;1247;59627;-67
2022/01/06 04:40:13;;;;;;;27.70;18.40;;;;;;;4.54;81.94;96203.95;110095;1248;72297;-68
2022/01/06 04:42:43;;;;;;;21.00;14.50;;;;;;;4.57;82.43;96202.20;110220;1247;68689;-67
2022/01/06 04:45:12;;;;;;;22.40;16.40;;;;;;;4.59;82.70;96210.12;110061;1248;69622;-67
2022/01/06 04:47:41;;;;;;;23.50;16.30;;;;;;;4.62;82.60;96217.20;110220;1247;59811;-67
2022/01/06 04:50:11;;;;;;;27.90;18.40;;;;;;;4.65;82.60;96220.11;110191;1247;59673;-68
2022/01/06 04:52:41;;;;;;;36.80;26.30;;;;;;;4.68;82.16;96214.23;110129;1247;71524;-67
2022/01/06 04:55:11;;;;;;;23.60;16.80;;;;;;;4.67;83.31;96216.51;110099;1248;68482;-67
2022/01/06 04:57:41;;;;;;;22.10;13.90;;;;;;;4.68;82.88;96210.27;109976;1247;68757;-69
2022/01/06 05:00:17;;;;;;;35.50;23.60;;;;;;;4.68;83.11;96207.99;109956;1247;59759;-66
2022/01/06 05:02:46;;;;;;;28.30;19.90;;;;;;;4.64;83.06;96217.73;110120;1247;59690;-66
2022/01/06 05:05:17;;;;;;;16.70;11.10;;;;;;;4.61;83.79;96222.77;110055;1249;71536;-70
2022/01/06 05:07:48;;;;;;;28.90;21.10;;;;;;;4.59;84.39;96224.62;109971;1250;68459;-68
2022/01/06 05:10:20;;;;;;;26.30;17.80;;;;;;;4.59;84.10;96227.60;109931;1248;69411;-69
2022/01/06 05:12:50;;;;;;;33.40;22.50;;;;;;;4.60;84.05;96226.50;110137;1247;59770;-71
2022/01/06 05:15:19;;;;;;;32.20;21.90;;;;;;;4.60;85.22;96222.80;110108;1247;59663;-69
2022/01/06 05:17:48;;;;;;;34.10;23.00;;;;;;;4.62;85.29;96224.25;110001;1250;71443;-70
2022/01/06 05:20:24;;;;;;;22.80;16.00;;;;;;;4.65;84.96;96232.19;110160;1247;67807;-69
2022/01/06 05:22:56;;;;;;;25.90;18.30;;;;;;;4.68;83.72;96229.61;110035;1250;68659;-69
2022/01/06 05:25:27;;;;;;;21.40;15.70;;;;;;;4.70;83.67;96224.63;110083;1250;59758;-71
2022/01/06 05:27:56;;;;;;;22.50;17.00;;;;;;;4.73;83.62;96231.45;110126;1249;59692;-70
2022/01/06 05:30:25;;;;;;;19.90;14.60;;;;;;;4.77;83.71;96235.50;110032;1248;70590;-69
2022/01/06 05:32:55;;;;;;;19.90;14.10;;;;;;;4.80;83.51;96235.45;110126;1247;68238;-70
2022/01/06 05:35:24;;;;;;;28.30;19.30;;;;;;;4.83;83.39;96234.39;110162;1248;68899;-68
2022/01/06 05:37:53;;;;;;;28.30;19.30;;;;;;;4.86;84.21;96234.38;110033;1250;59607;-72
2022/01/06 05:40:23;;;;;;;27.90;20.60;;;;;;;4.87;82.69;96229.52;110188;1247;59806;-68
2022/01/06 05:42:52;;;;;;;33.30;22.90;;;;;;;4.85;82.76;96225.46;110214;1250;71687;-70
2022/01/06 05:45:22;;;;;;;28.90;21.20;;;;;;;4.85;82.86;96222.36;110010;1250;68788;-71
2022/01/06 05:47:52;;;;;;;28.10;18.90;;;;;;;4.86;82.93;96226.08;109982;1249;70136;-70
2022/01/06 05:50:21;;;;;;;24.40;16.30;;;;;;;4.88;82.84;96227.87;110097;1250;59695;-67
2022/01/06 05:52:54;;;;;;;19.70;13.80;;;;;;;4.90;82.68;96225.98;109896;1250;59735;-70
2022/01/06 05:55:24;;;;;;;16.90;11.80;;;;;;;4.92;82.37;96227.88;110147;1247;71032;-70
2022/01/06 05:57:53;;;;;;;30.80;23.10;;;;;;;4.96;82.30;96224.23;110136;1247;67831;-67
2022/01/06 06:00:22;;;;;;;26.10;17.60;;;;;;;4.97;84.62;96231.21;110183;1247;69467;-71
2022/01/06 06:02:50;;;;;;;24.30;16.20;;;;;;;4.98;83.92;96225.73;110129;1249;59680;-67
2022/01/06 06:05:20;;;;;;;22.90;15.40;;;;;;;5.02;83.76;96217.77;110142;1247;59675;-68
2022/01/06 06:07:49;;;;;;;22.80;15.50;;;;;;;5.05;83.30;96216.64;110116;1247;71530;-69
2022/01/06 06:10:18;;;;;;;20.30;14.10;;;;;;;5.09;82.92;96216.36;110125;1247;69310;-66
2022/01/06 06:12:52;;;;;;;21.20;14.00;;;;;;;5.13;82.77;96220.61;110060;1248;69383;-70
2022/01/06 06:15:21;;;;;;;21.40;15.80;;;;;;;5.17;83.15;96224.15;110138;1247;59757;-67
2022/01/06 06:17:50;;;;;;;19.70;12.60;;;;;;;5.19;83.32;96222.48;110047;1250;59769;-67
2022/01/06 06:20:20;;;;;;;20.90;12.80;;;;;;;5.22;83.13;96227.05;110110;1247;70805;-73
2022/01/06 06:22:49;;;;;;;33.00;23.20;;;;;;;5.24;82.94;96229.30;110181;1247;67849;-68
2022/01/06 06:25:18;;;;;;;36.00;23.70;;;;;;;5.24;83.59;96223.80;110079;1248;68706;-69
2022/01/06 06:27:47;;;;;;;25.40;18.20;;;;;;;5.24;83.50;96223.11;110120;1247;59691;-69
2022/01/06 06:30:16;;;;;;;26.70;18.10;;;;;;;5.25;82.95;96226.13;110147;1249;59667;-70
2022/01/06 06:32:45;;;;;;;32.10;22.70;;;;;;;5.26;82.71;96232.98;110083;1248;71763;-71
2022/01/06 06:35:14;;;;;;;24.70;18.70;;;;;;;5.26;83.16;96230.52;110033;1247;67741;-71
2022/01/06 06:37:43;;;;;;;51.40;34.20;;;;;;;5.28;82.35;96226.80;110128;1247;68692;-70
2022/01/06 06:40:12;;;;;;;30.10;20.10;;;;;;;5.27;82.79;96232.88;110095;1248;59725;-71
2022/01/06 06:42:41;;;;;;;27.30;18.70;;;;;;;5.28;82.56;96229.54;110131;1247;59715;-68
2022/01/06 06:45:10;;;;;;;23.70;16.30;;;;;;;5.29;82.46;96228.61;110139;1247;70756;-71
2022/01/06 06:47:40;;;;;;;39.60;25.80;;;;;;;5.31;82.44;96227.11;110007;1247;68621;-70
2022/01/06 06:50:09;;;;;;;36.70;25.60;;;;;;;5.32;82.29;96232.59;110103;1247;70029;-69
2022/01/06 06:52:38;;;;;;;48.10;35.80;;;;;;;5.32;82.99;96239.63;110126;1248;59700;-70
2022/01/06 06:55:08;;;;;;;39.70;28.60;;;;;;;5.33;83.18;96238.66;110005;1250;59698;-69
2022/01/06 06:57:37;;;;;;;35.40;26.70;;;;;;;5.33;83.76;96239.89;110151;1247;71669;-70
2022/01/06 07:00:08;;;;;;;28.90;19.80;;;;;;;5.34;83.24;96244.81;110118;1247;69351;-71
2022/01/06 07:02:37;;;;;;;19.30;13.80;;;;;;;5.36;82.72;96255.92;110094;1249;68836;-72
2022/01/06 07:05:07;;;;;;;25.10;18.00;;;;;;;5.40;82.16;96261.58;110104;1248;59674;-72
2022/01/06 07:07:36;;;;;;;32.90;22.10;;;;;;;5.41;82.23;96261.27;110131;1247;60036;-73
2022/01/06 07:10:06;;;;;;;30.30;22.00;;;;;;;5.43;82.82;96258.05;110079;1247;72155;-67
2022/01/06 07:12:42;;;;;;;42.10;29.10;;;;;;;5.46;83.37;96266.98;110131;1247;68666;-71
2022/01/06 07:15:14;;;;;;;37.90;26.50;;;;;;;5.46;85.23;96270.98;110312;1247;68848;-72
2022/01/06 07:17:43;;;;;;;35.10;21.90;;;;;;;5.44;84.80;96270.27;110109;1248;59723;-71
2022/01/06 07:20:12;;;;;;;57.30;38.10;;;;;;;5.43;84.03;96287.45;110117;1247;59704;-67
2022/01/06 07:22:41;;;;;;;59.50;39.20;;;;;;;5.31;84.52;96315.00;110168;1247;70503;-72
2022/01/06 07:25:11;;;;;;;34.10;23.70;;;;;;;5.22;84.44;96298.73;110056;1248;67918;-70
2022/01/06 07:27:40;;;;;;;42.10;29.30;;;;;;;5.21;84.06;96281.89;110134;1247;70185;-72
2022/01/06 07:30:09;;;;;;;43.70;29.70;;;;;;;5.21;84.66;96289.83;110146;1247;59688;-67
2022/01/06 07:32:43;;;;;;;39.30;24.80;;;;;;;5.23;85.82;96303.71;110120;1247;59689;-70
2022/01/06 07:35:13;;;;;;;22.40;16.40;;;;;;;5.25;86.17;96315.94;110104;1248;71573;-69
2022/01/06 07:37:42;;;;;;;55.20;33.70;;;;;;;5.28;85.16;96315.90;109993;1249;68967;-69
2022/01/06 07:40:17;;;;;;;52.50;32.10;;;;;;;5.23;86.09;96330.08;110103;1250;68953;-70
2022/01/06 07:42:47;;;;;;;49.00;33.50;;;;;;;5.15;86.65;96346.34;110086;1247;59744;-70
2022/01/06 07:45:18;;;;;;;31.40;19.70;;;;;;;5.09;87.55;96355.77;110267;1247;59664;-72
2022/01/06 07:47:59;;;;;;;24.40;15.20;;;;;;;5.16;86.92;96359.92;110035;1248;71491;-70
2022/01/06 07:50:32;;;;;;;21.50;14.00;;;;;;;5.27;86.54;96368.02;110011;1248;68376;-72
2022/01/06 07:53:01;;;;;;;18.10;12.10;;;;;;;5.36;86.57;96377.05;110160;1247;69382;-72
2022/01/06 07:55:30;;;;;;;24.60;15.30;;;;;;;5.43;86.46;96373.98;110045;1248;59691;-72
2022/01/06 07:57:59;;;;;;;19.60;12.80;;;;;;;5.46;86.84;96367.21;110096;1247;59725;-71
2022/01/06 08:00:28;;;;;;;28.10;20.00;;;;;;;5.48;87.01;96353.41;110168;1250;71608;-73
2022/01/06 08:02:57;;;;;;;33.80;22.50;;;;;;;5.44;87.98;96361.83;110198;1247;67944;-70
2022/01/06 08:05:27;;;;;;;34.50;23.90;;;;;;;5.41;88.23;96363.77;110152;1247;69597;-72
2022/01/06 08:07:56;;;;;;;39.10;25.90;;;;;;;5.34;88.57;96376.83;110144;1249;60021;-72
2022/01/06 08:10:25;;;;;;;37.70;25.90;;;;;;;5.29;88.92;96391.02;109926;1249;59707;-69
2022/01/06 08:12:54;;;;;;;29.20;19.50;;;;;;;5.26;88.85;96395.34;110038;1250;70614;-73
2022/01/06 08:15:23;;;;;;;32.80;21.00;;;;;;;5.28;88.54;96381.95;110088;1247;68579;-69
2022/01/06 08:17:52;;;;;;;24.00;16.10;;;;;;;5.29;88.60;96381.14;109996;1250;69965;-69
2022/01/06 08:20:21;;;;;;;24.30;15.70;;;;;;;5.33;88.01;96374.89;110143;1249;59894;-69
2022/01/06 08:22:49;;;;;;;27.50;18.70;;;;;;;5.36;87.89;96374.98;110145;1248;59592;-72
2022/01/06 08:25:19;;;;;;;27.40;17.30;;;;;;;5.39;87.94;96374.31;110217;1248;72223;-71
2022/01/06 08:27:47;;;;;;;21.00;14.90;;;;;;;5.42;87.72;96369.77;110133;1249;68719;-72
2022/01/06 08:30:16;;;;;;;17.30;11.40;;;;;;;5.47;87.27;96354.37;109975;1250;70189;-71
2022/01/06 08:32:45;;;;;;;20.90;13.60;;;;;;;5.53;86.62;96348.23;110003;1250;59725;-70
2022/01/06 08:35:14;;;;;;;21.10;15.90;;;;;;;5.56;86.84;96354.58;109988;1250;59687;-71
2022/01/06 08:37:43;;;;;;;24.80;17.40;;;;;;;5.60;86.86;96357.72;110137;1249;70533;-71
2022/01/06 08:40:13;;;;;;;15.30;10.80;;;;;;;5.67;87.02;96366.50;110216;1249;68570;-72
2022/01/06 08:42:42;;;;;;;17.20;11.00;;;;;;;5.73;86.50;96369.65;110173;1248;69269;-69
2022/01/06 08:45:11;;;;;;;28.10;19.20;;;;;;;5.78;86.50;96376.56;109886;1250;59729;-70
2022/01/06 08:47:40;;;;;;;31.00;19.70;;;;;;;5.78;87.00;96381.10;110103;1250;59742;-72
2022/01/06 08:50:10;;;;;;;25.90;16.30;;;;;;;5.74;87.18;96388.94;109973;1250;72124;-72
2022/01/06 08:52:39;;;;;;;18.30;12.50;;;;;;;5.73;86.88;96394.75;110157;1250;67736;-72
2022/01/06 08:55:09;;;;;;;26.40;16.80;;;;;;;5.73;86.36;96407.89;110217;1247;69466;-72
2022/01/06 08:57:38;;;;;;;13.80;8.30;;;;;;;5.74;86.33;96400.94;109961;1250;59738;-71
2022/01/06 09:00:10;;;;;;;20.10;13.60;;;;;;;5.75;86.07;96409.29;110250;1248;59678;-68
2022/01/06 09:02:39;;;;;;;21.40;13.80;;;;;;;5.75;86.77;96408.47;109954;1249;72154;-70
2022/01/06 09:05:10;;;;;;;16.30;11.50;;;;;;;5.72;87.06;96410.90;110177;1248;67298;-69
2022/01/06 09:07:39;;;;;;;12.30;8.70;;;;;;;5.71;86.35;96415.23;109917;1249;68707;-69
2022/01/06 09:10:08;;;;;;;12.70;8.70;;;;;;;5.72;86.00;96421.41;109958;1250;59685;-72
2022/01/06 09:12:38;;;;;;;12.10;7.80;;;;;;;5.73;85.79;96435.01;110012;1249;238558;-74
2022/01/06 09:15:08;;;;;;;13.70;10.10;;;;;;;5.74;85.69;96430.45;110175;1248;71954;-74
2022/01/06 09:17:38;;;;;;;12.90;9.40;;;;;;;5.75;85.60;96440.78;110174;1249;68659;-70
2022/01/06 09:20:08;;;;;;;14.90;9.70;;;;;;;5.75;85.40;96442.01;110167;1247;69802;-70
2022/01/06 09:22:42;;;;;;;13.50;9.30;;;;;;;5.70;85.45;96433.66;109889;1250;59753;-68
2022/01/06 09:25:13;;;;;;;14.70;9.30;;;;;;;5.70;85.21;96439.06;109823;1250;59628;-69
2022/01/06 09:27:45;;;;;;;12.80;8.50;;;;;;;5.68;85.02;96440.55;110217;1249;70567;-70
2022/01/06 09:30:14;;;;;;;11.10;7.60;;;;;;;5.66;84.89;96439.13;110215;1247;67856;-68
2022/01/06 09:32:43;;;;;;;12.60;9.40;;;;;;;5.65;84.91;96445.73;110120;1249;68712;-71
2022/01/06 09:35:14;;;;;;;11.30;8.20;;;;;;;5.65;84.72;96452.02;109848;1250;59753;-68
2022/01/06 09:37:43;;;;;;;13.40;9.80;;;;;;;5.63;84.68;96452.45;110163;1249;59747;-70
2022/01/06 09:40:12;;;;;;;13.20;9.90;;;;;;;5.61;84.63;96457.23;110149;1248;72109;-68
2022/01/06 09:42:42;;;;;;;12.60;8.20;;;;;;;5.57;84.58;96460.28;110200;1249;69036;-71
2022/01/06 09:45:16;;;;;;;11.70;8.20;;;;;;;5.54;84.45;96456.86;110152;1248;68709;-72
2022/01/06 09:47:46;;;;;;;11.20;7.20;;;;;;;5.50;84.46;96460.94;110156;1249;59704;-71
2022/01/06 09:50:16;;;;;;;9.50;6.10;;;;;;;5.47;84.40;96461.46;109851;1250;59741;-69
2022/01/06 09:52:46;;;;;;;9.80;6.90;;;;;;;5.45;84.43;96460.94;109649;1250;71541;-70
2022/01/06 09:55:15;;;;;;;9.60;7.00;;;;;;;5.43;84.48;96459.88;109880;1250;69263;-70
2022/01/06 09:57:57;;;;;;;9.50;7.10;;;;;;;5.41;84.51;96466.59;110133;1249;69304;-72
2022/01/06 10:00:29;;;;;;;6.70;5.00;;;;;;;5.38;84.50;96462.31;109896;1250;59719;-72
2022/01/06 10:03:01;;;;;;;6.20;4.50;;;;;;;5.36;83.75;96465.02;110182;1250;59611;-73
2022/01/06 10:05:42;;;;;;;5.70;3.80;;;;;;;5.31;83.28;96470.04;110037;1250;70688;-72
2022/01/06 10:08:13;;;;;;;5.10;4.10;;;;;;;5.24;82.91;96472.17;109858;1250;68586;-73
2022/01/06 10:10:42;;;;;;;4.80;3.30;;;;;;;5.17;82.87;96474.91;109928;1250;68573;-72
2022/01/06 10:13:15;;;;;;;3.80;3.30;;;;;;;5.13;82.75;96477.62;109805;1250;59782;-74
2022/01/06 10:15:46;;;;;;;4.10;3.00;;;;;;;5.07;82.94;96476.20;109989;1250;59688;-72
2022/01/06 10:18:16;;;;;;;3.90;3.20;;;;;;;5.03;83.01;96478.61;109820;1250;72120;-72
2022/01/06 10:20:48;;;;;;;3.80;2.80;;;;;;;5.00;83.05;96475.17;109899;1250;68633;-70
2022/01/06 10:23:17;;;;;;;4.40;2.90;;;;;;;4.97;82.89;96474.11;109969;1250;70304;-72
2022/01/06 10:25:49;;;;;;;4.00;2.70;;;;;;;4.94;82.34;96482.09;110018;1249;59736;-71
2022/01/06 10:28:24;;;;;;;2.50;2.00;;;;;;;4.91;82.43;96484.04;110067;1249;59698;-72
2022/01/06 10:30:53;;;;;;;2.70;1.90;;;;;;;4.86;82.10;96486.76;109896;1250;70834;-73
2022/01/06 10:33:35;;;;;;;3.00;2.20;;;;;;;4.83;81.97;96495.91;109951;1249;67859;-72
2022/01/06 10:36:15;;;;;;;2.70;1.90;;;;;;;4.80;81.75;96506.33;110257;1247;68633;-74
2022/01/06 10:38:53;;;;;;;2.30;1.90;;;;;;;4.75;81.91;96512.51;109855;1247;59643;-74
2022/01/06 10:41:22;;;;;;;2.50;1.90;;;;;;;4.72;82.02;96520.63;110151;1249;59685;-72
2022/01/06 10:43:53;;;;;;;2.00;1.70;;;;;;;4.69;82.00;96534.10;110145;1249;71551;-71
2022/01/06 10:46:40;;;;;;;2.50;1.80;;;;;;;4.67;82.09;96541.33;110150;1248;68645;-73
2022/01/06 10:49:12;;;;;;;2.50;1.80;;;;;;;4.64;82.04;96545.70;110149;1249;69525;-73
2022/01/06 10:51:49;;;;;;;1.70;1.50;;;;;;;4.61;81.83;96545.84;110150;1248;59684;-76
2022/01/06 10:54:21;;;;;;;2.80;1.80;;;;;;;4.57;81.81;96543.10;110141;1249;59668;-71
2022/01/06 10:57:11;;;;;;;2.50;1.90;;;;;;;4.55;81.78;96550.67;110193;1249;72252;-72
2022/01/06 10:59:40;;;;;;;1.90;1.60;;;;;;;4.51;81.92;96549.56;110133;1248;68243;-72
2022/01/06 11:02:24;;;;;;;1.60;1.30;;;;;;;4.49;81.93;96552.13;110039;1249;68657;-72
2022/01/06 11:04:54;;;;;;;2.00;1.70;;;;;;;4.47;81.88;96545.69;110041;1250;59680;-68
2022/01/06 11:07:23;;;;;;;1.90;1.30;;;;;;;4.45;81.90;96550.84;110156;1247;59755;-72
2022/01/06 11:09:56;;;;;;;2.40;1.60;;;;;;;4.44;82.02;96557.08;110026;1248;72139;-74
2022/01/06 11:12:30;;;;;;;2.30;1.80;;;;;;;4.43;81.94;96561.13;109875;1250;69457;-72
2022/01/06 11:15:04;;;;;;;2.70;2.10;;;;;;;4.42;82.10;96562.03;109942;1250;69859;-72
2022/01/06 11:17:33;;;;;;;2.20;1.70;;;;;;;4.41;82.06;96562.78;109940;1250;59777;-74
2022/01/06 11:20:06;;;;;;;1.90;1.40;;;;;;;4.39;81.98;96562.05;109971;1249;59666;-73
2022/01/06 11:22:47;;;;;;;2.40;1.70;;;;;;;4.37;81.99;96573.21;110098;1249;70767;-71
2022/01/06 11:25:16;;;;;;;3.10;2.00;;;;;;;4.38;82.19;96582.67;109887;1250;68532;-69
2022/01/06 11:27:47;;;;;;;2.20;1.70;;;;;;;4.37;82.18;96589.45;109890;1250;69236;-72
2022/01/06 11:30:16;;;;;;;2.90;2.10;;;;;;;4.37;82.11;96592.37;110073;1248;59632;-72
2022/01/06 11:32:45;;;;;;;3.00;2.20;;;;;;;4.35;82.36;96595.60;110119;1250;59742;-69
2022/01/06 11:35:19;;;;;;;2.60;1.80;;;;;;;4.30;82.44;96602.79;110213;1247;71723;-70
2022/01/06 11:37:52;;;;;;;2.90;1.70;;;;;;;4.29;82.55;96602.33;110207;1247;67624;-69
2022/01/06 11:40:34;;;;;;;4.10;2.20;;;;;;;4.28;82.55;96605.11;110064;1250;70031;-70
2022/01/06 11:43:08;;;;;;;2.10;1.90;;;;;;;4.28;82.56;96603.90;110150;1247;59700;-67
2022/01/06 11:45:36;;;;;;;2.60;2.10;;;;;;;4.30;82.41;96605.38;109951;1249;59740;-68
2022/01/06 11:48:16;;;;;;;2.30;1.80;;;;;;;4.31;82.08;96603.77;110130;1247;71539;-68